Espace membre
Imprimable
Brussel, 02/10/2016, BEL - Brussels Marathon & Half Marathon
Liste des rapports > Half-Marathon - Classement
Recherche: Page: [1] 2 3 4 5 6 7 8 9 10
4511 Entrées
 
Les réclamations ne sont plus acceptées, les résultats sont considérés comme définitifs.
Catégorie
PosNrNomAgeIOCTempsTkmMoy.RangNomScrLocalité
Vos photos gr?ce ? Sportograf1.3261VAN DROOGENBROECK Lander33BEL1:08:573:17 18.361SEH1OPWIJK
Vos photos gr?ce ? Sportograf2.8334DARRAZI Younes20BEL1:11:413:24 17.662SEH2NIVELLES
Vos photos gr?ce ? Sportograf3.3178TORBEYNS Jef21BEL1:12:373:27 17.433SEH3DILBEEK
Vos photos gr?ce ? Sportograf4.11772CLAIS Francois31BEL1:13:043:28 17.324SEH4ETTERBEEK
Vos photos gr?ce ? Sportograf5.7973GILLET Geoffray29BEL1:13:123:29 17.295SEH5WANZE
Vos photos gr?ce ? Sportograf6.5959TEJEDOR MERINO Abraham38ESP1:13:343:30 17.211M356MADRID
Vos photos gr?ce ? Sportograf7.3003CHIPY Jean Baptiste33FRA1:14:023:31 17.106SEH7AGEN 47000
Vos photos gr?ce ? Sportograf8.10922LUCAS Benjamin30AUS1:14:083:31 17.087SEH8MELBOURNE
Vos photos gr?ce ? Sportograf9.3136LESNIAK Kamil23POL1:14:323:32 16.988SEH9TORUN
Vos photos gr?ce ? Sportograf10.9292PIESSENS Cedric24NLD1:14:443:33 16.949SEH10WAASMUNSTER
Vos photos gr?ce ? Sportograf11.3524SPRAUEL Valentin27FRA1:14:483:33 16.9210SEH11ERGERSHEIM
Vos photos gr?ce ? Sportograf12.6657MANCINO Matteo21ITA1:15:033:34 16.8711SEH12MILANO
Vos photos gr?ce ? Sportograf13.3372EVENEPOEL Remco16BEL1:16:153:37 16.6012SEH13SCHEPDAAL
Vos photos gr?ce ? Sportograf14.12433COUPÉ Romain27BEL1:16:383:38 16.5213SEH14MOHA
Vos photos gr?ce ? Sportograf15.5650GOLENIEWSKI Mateusz24POL1:16:453:39 16.4914SEH15TORUN
Vos photos gr?ce ? Sportograf16.5180PÉTRÉ Maxime27BEL1:16:483:39 16.4815SEH16IXELLES
Vos photos gr?ce ? Sportograf17.3088ROBBERECHTS Ruben20BEL1:17:213:40 16.3616SEH17KAPELLE OP DEN BOS
Vos photos gr?ce ? Sportograf18.3303RODRIQUE Hervé21BEL1:17:283:41 16.3417SEH18ANTHEIT
Vos photos gr?ce ? Sportograf19.3139CASTEELS Tim32BEL1:17:303:41 16.3318SEH19KEERBERGEN
Vos photos gr?ce ? Sportograf20.3363GELDOF Barthelemy27BEL1:18:123:43 16.1919SEH20HEVERLEE
Vos photos gr?ce ? Sportograf21.3057VAN ESPEN Fabrice28BEL1:18:173:43 16.1720SEH21HOEILAART
Vos photos gr?ce ? Sportograf22.3409BOUTGGA Lahcen38BEL1:18:343:44 16.112M3522ATH
Vos photos gr?ce ? Sportograf23.3122DEWULF Joseph29BEL1:18:433:44 16.0821SEH23BRUXELLES
Vos photos gr?ce ? Sportograf24.12309THIRIFAYS François22BEL1:18:553:45 16.0422SEH24LASNE
Vos photos gr?ce ? Sportograf25.10102FADOUL Taha44BEL1:18:583:45 16.031M4025BRUXELLES
Vos photos gr?ce ? Sportograf26.8085VAN HAVERBEKE Charles28BEL1:19:053:45 16.0123SEH26IEPER
Vos photos gr?ce ? Sportograf27.3069DE MEY Liam34BEL1:19:203:46 15.9624SEH27DOEL
Vos photos gr?ce ? Sportograf28.6222GRISON Olivier31FRA1:19:383:47 15.8925SEH28ETTERBEEK
Vos photos gr?ce ? Sportograf29.3120BOTTONE Michele39ITA1:19:483:47 15.863M3529LONDON
Vos photos gr?ce ? Sportograf30.8302LAUWERS Bryan Roland30BEL1:19:563:48 15.8426SEH30THUIN
Vos photos gr?ce ? Sportograf31.7716DE COURCY Bruno18FRA1:19:573:48 15.8327SEH31STRASSEN
Vos photos gr?ce ? Sportograf32.3176KERKHOVE Loic31BEL1:20:123:49 15.7828SEH32KRAAINEM
Vos photos gr?ce ? Sportograf33.3154FOUSS François38BEL1:20:133:49 15.784M3533SOIGNIES
Vos photos gr?ce ? Sportograf34.3453TRILLET Denis22BEL1:20:133:49 15.7829SEH34HOUFFALIZE
Vos photos gr?ce ? Sportograf35.4162D'HARVENG Yves26BEL1:20:133:49 15.7830SEH35SAINT-MARC
Vos photos gr?ce ? Sportograf36.8084VAN CAUWENBERGHE Charles28BEL1:20:163:49 15.7731SEH36ELSENE
Vos photos gr?ce ? Sportograf37.9827COMPEYRON Yoann32FRA1:20:273:49 15.7332SEH38PLAINEVAUX
Vos photos gr?ce ? Sportograf38.9617DALCQ Alexandre30BEL1:20:293:49 15.7333SEH39GROOT-BIJGAARDEN
Vos photos gr?ce ? Sportograf39.6026VALERDI Quique38ESP1:20:303:49 15.725M3540ETTERBEEL
Vos photos gr?ce ? Sportograf40.12162VAN LONDERSELE Sven31BEL1:20:373:50 15.7034SEH41GERAARDSBERGEN
Vos photos gr?ce ? Sportograf41.3983EL BERKANI Nael26BEL1:20:403:50 15.6935SEH42BRUXELLES
Vos photos gr?ce ? Sportograf42.8137GENNART Frédéric François35BEL1:20:573:51 15.646M3543KNOKKE-HEIST
Vos photos gr?ce ? Sportograf43.3184BUYTAERT Jan29BEL1:21:043:51 15.6136SEH44BRASSCHAAT
Vos photos gr?ce ? Sportograf44.8422ORDONEZ Manu33BEL1:21:143:52 15.5837SEH45EUPEN
Vos photos gr?ce ? Sportograf45.3226BULLE Ashenafi34ETH1:21:153:52 15.5838SEH46LEUVEN
Vos photos gr?ce ? Sportograf46.3223LESMAYOUX Regis37FRA1:21:183:52 15.577M3547AMENUCOURT
Vos photos gr?ce ? Sportograf47.3190KOLP Vincent29BEL1:21:343:52 15.5239SEH48BRUXELLES
Vos photos gr?ce ? Sportograf48.11741VANDEN BOSSCHE Philippe47BEL1:21:453:53 15.481M4549LIMAL
Vos photos gr?ce ? Sportograf49.9855VAN ACKER Tom24BEL1:21:473:53 15.4840SEH50RUMBEKE
Vos photos gr?ce ? Sportograf50.3205KASCHL Arno47DEU1:21:483:53 15.472M4551AUDERGHEM
Vos photos gr?ce ? Sportograf51.6840ANTOINE Rogez27FRA1:21:533:53 15.4641SEH52AMSTERDAM
Vos photos gr?ce ? Sportograf52.3289VERSTREPEN Frédéric44BEL1:22:013:54 15.432M4053RHISNES
Vos photos gr?ce ? Sportograf53.3248CILIBERTI David33MLT1:22:023:54 15.4342SEH54BRUSSELS
Vos photos gr?ce ? Sportograf54.10764BICKER Benny44BEL1:22:053:54 15.423M4055
Vos photos gr?ce ? Sportograf55.10451JODOGNE Raphaël45BEL1:22:063:54 15.423M4556
Vos photos gr?ce ? Sportograf56.3175NORDENLÖW David33SWE1:22:173:55 15.3843SEH57ST GILLES
Vos photos gr?ce ? Sportograf57.5277ENDER Stephan27AUT1:22:333:55 15.3344SEH58ANTWERPEN
Vos photos gr?ce ? Sportograf58.10124TORFS Pieter42BEL1:22:443:56 15.304M4059KORBEEK-LO
Vos photos gr?ce ? Sportograf59.3007DEZUTERE Laurent49BEL1:22:453:56 15.304M4560BRUXELLES
Vos photos gr?ce ? Sportograf60.5539MAHIEU Luc31BEL1:22:523:56 15.2745SEH61ETTERBEEK
Vos photos gr?ce ? Sportograf61.3245LEMEUNIER Florent37FRA1:22:593:56 15.258M3562SCHAERBEEK
Vos photos gr?ce ? Sportograf62.3059HUYSMAN Ruben20BEL1:23:013:57 15.2546SEH63ASTENE
Vos photos gr?ce ? Sportograf63.7754GILLEMAN Vincent47BEL1:23:043:57 15.245M4564BRUXELLES
Vos photos gr?ce ? Sportograf64.9318VAN BREMPT Siemon28BEL1:23:043:57 15.2447SEH65AALST
Vos photos gr?ce ? Sportograf65.3065VANDERDEELEN Joost28BEL1:23:113:57 15.2248SEH66GENT
Vos photos gr?ce ? Sportograf66.3285SYFER Félix18BEL1:23:153:57 15.2149SEH67OTTIGNIES-LOUVAIN-LA-NEUV
Vos photos gr?ce ? Sportograf67.3128THEUNIS Gert41BEL1:23:173:57 15.205M4068HANNUT
Vos photos gr?ce ? Sportograf68.10117WILLEMS Oskar17BEL1:23:203:58 15.1950SEH69RIXENSART
Vos photos gr?ce ? Sportograf69.6193JUTIER Arnaud30FRA1:23:213:58 15.1951SEH70UCCLE
Vos photos gr?ce ? Sportograf70.7108LALLIER Antoine36LUX1:23:243:58 15.189M3571LUXEMBOURG
Vos photos gr?ce ? Sportograf71.3141BOURLIER Cédric25FRA1:23:263:58 15.1752SEH72BRUXELLES
Vos photos gr?ce ? Sportograf72.10032GHILAIN Olivier36BEL1:23:303:58 15.1610M3574WEZEMBEEK OPPEM
Vos photos gr?ce ? Sportograf73.3071DASSARGUES Charles33BEL1:23:383:58 15.1353SEH75BRUXELLES
Vos photos gr?ce ? Sportograf74.7090VAN DER LINDEN Ruben33BEL1:23:393:58 15.1354SEH76OUDENAARDE
Vos photos gr?ce ? Sportograf75.3004MEINGUET Dorian26BEL1:23:453:59 15.1155SEH77BRUXELLES
Vos photos gr?ce ? Sportograf76.7113AGTEN Dries28BEL1:23:453:59 15.1156SEH78SINT-PIETERS-WOLUWE
Vos photos gr?ce ? Sportograf77.7360BALASHOV Nikita33BLR1:23:473:59 15.1157SEH79MINSK
Vos photos gr?ce ? Sportograf78.9372VINCKEN Simon26BEL1:23:473:59 15.1158SEH80SCHAARBEEK
Vos photos gr?ce ? Sportograf79.3208PAIRONA Marco41ITA1:23:483:59 15.106M4081ETTERBEEK
Vos photos gr?ce ? Sportograf80.7901REYNAERTS Dries32BEL1:23:523:59 15.0959SEH82WOLVERTEM
Vos photos gr?ce ? Sportograf81.3218REYNAERTS Bram34BEL1:24:104:00 15.0460SEH84HALLE
Vos photos gr?ce ? Sportograf82.9536DE LA BROSSE Guillaume34FRA1:24:204:00 15.0161SEH85IXELLES
Vos photos gr?ce ? Sportograf83.3282RONDENBOSCH Roger41BEL1:24:274:01 14.997M4086LONDRES
Vos photos gr?ce ? Sportograf84.9264SZUSTAK Mathieu30BEL1:24:294:01 14.9862SEH87WOLUWÉ-SAINT-LAMBERT
Vos photos gr?ce ? Sportograf85.5479CHOIN Mathieu32FRA1:24:304:01 14.9863SEH88WATERMAEL-BOITSFORT
Vos photos gr?ce ? Sportograf86.8154PARENT Quentin Willy27BEL1:24:304:01 14.9864SEH90LA LOUVIÈRE
Vos photos gr?ce ? Sportograf87.3196PORRE Laurent38FRA1:24:324:01 14.9711M3591BRUXELLES
Vos photos gr?ce ? Sportograf88.3070PATRIS Xavier31BEL1:24:354:01 14.9765SEH92UCCLE
Vos photos gr?ce ? Sportograf89.6112HUYGHE Filip45BEL1:24:374:01 14.966M4593BRUSSEL
Vos photos gr?ce ? Sportograf90.3246VANDEN BULCKE Filip40BEL1:24:374:01 14.968M4094SCHAARBEEK
Vos photos gr?ce ? Sportograf91.8030RIGONI Nicola29ITA1:24:374:01 14.9666SEH95LONDON
Vos photos gr?ce ? Sportograf92.3006SNOECK Didier46BEL1:24:394:01 14.957M4596BRUXELLES
Vos photos gr?ce ? Sportograf93.10939DUPUIS Jonathan30BEL1:24:434:01 14.9467SEH97SCHAERBEEK
Vos photos gr?ce ? Sportograf94.4197MALCORPS Michaël26BEL1:24:444:01 14.9468SEH98ETTERBEEK
Vos photos gr?ce ? Sportograf95.4271VONDELING Thur19NLD1:24:454:02 14.9469SEH99S-L-W
Vos photos gr?ce ? Sportograf96.3266NIZET Olivier43BEL1:24:464:02 14.939M40100DEURNE
Vos photos gr?ce ? Sportograf97.3232DENOEL Nicolas25BEL1:24:474:02 14.9370SEH101BRUXELLES
Vos photos gr?ce ? Sportograf98.9438MOUREAU Sam34BEL1:24:534:02 14.9171SEH102RUISBROEK
Vos photos gr?ce ? Sportograf99.9968BOUCQUEY Jerome19BEL1:24:564:02 14.9072SEH103BRUXELLES
Vos photos gr?ce ? Sportograf100.3657SCHOOFS Lode29BEL1:24:564:02 14.9073SEH104
Vos photos gr?ce ? Sportograf101.3121ROVATI Gabriele34BEL1:25:044:02 14.8874SEH105ANTWERPEN
Vos photos gr?ce ? Sportograf102.9747ROOMS Kristof38BEL1:25:044:02 14.8812M35106HELDERGEM
Vos photos gr?ce ? Sportograf103.8438PADRON Luis41MEX1:25:134:03 14.8610M40108BEERSEL
Vos photos gr?ce ? Sportograf104.5406BUTHION Lucas26FRA1:25:154:03 14.8575SEH109BRUXELLES
Vos photos gr?ce ? Sportograf105.6178GARDINER Andrew47GBR1:25:184:03 14.848M45110STEVENAGE
Vos photos gr?ce ? Sportograf106.3029POUILLE Alexandre27USA1:25:274:03 14.8176SEH111IXELLES
Vos photos gr?ce ? Sportograf107.3267KIECKENS Kenneth28BEL1:25:274:04 14.8177SEH112OETINGEN
Vos photos gr?ce ? Sportograf108.3092BIONDOLILLO Gabriel39BEL1:25:274:04 14.8113M35113AMAY
Vos photos gr?ce ? Sportograf109.8373VAN DRIESSCHE Denis40BEL1:25:324:04 14.8011M40114VLEZENBEEK
Vos photos gr?ce ? Sportograf110.3164LYCKE Sven43BEL1:25:334:04 14.7912M40115RUMBEKE
Vos photos gr?ce ? Sportograf111.3326VAN DRIESSCHE Gael36BEL1:25:364:04 14.7914M35116DWORP
Vos photos gr?ce ? Sportograf112.3147LOUVRIER Arnaud24BEL1:25:374:04 14.7878SEH117AUDERGHEM
Vos photos gr?ce ? Sportograf113.3186VAN DURME Frédéric36BEL1:25:374:04 14.7815M35118BRUXELLES
Vos photos gr?ce ? Sportograf114.3640BUELINCKX Yves44BEL1:25:404:04 14.7813M40119
Vos photos gr?ce ? Sportograf115.7814JOKUZYS Deividas43LTU1:25:414:04 14.7714M40120BRUXELLES
Vos photos gr?ce ? Sportograf116.9242GODART Leon49BEL1:25:434:04 14.779M45121JEMAPPES
Vos photos gr?ce ? Sportograf117.3367VAN LIEFFERINGE Dimitri34BEL1:25:464:04 14.7679SEH122ZARLARDINGE
Vos photos gr?ce ? Sportograf118.9421SERWY Florian28BEL1:25:494:05 14.7580SEH123ERPENT
Vos photos gr?ce ? Sportograf119.4156LOVIS Cédric38CHE1:25:524:05 14.7416M35124VERSOIX
Vos photos gr?ce ? Sportograf120.3045CHADD Alexander32GBR1:25:534:05 14.7481SEH125BRUSSELS
Vos photos gr?ce ? Sportograf121.3095STRIK Peter53NLD1:25:574:05 14.731M50126SCHAARBEEK
Vos photos gr?ce ? Sportograf122.3355LELIÈVRE Thierry44BEL1:26:014:05 14.7215M40127BRUXELLES
Vos photos gr?ce ? Sportograf123.8310VERBRUGGHEN Johan49BEL1:26:114:06 14.6910M45129DENDERMONDE
Vos photos gr?ce ? Sportograf124.10406GUILMIN Thomas33BEL1:26:124:06 14.6982SEH130
Vos photos gr?ce ? Sportograf125.9734VAN DEN BOGAERT Tom40BEL1:26:134:06 14.6816M40131WICHELEN
Vos photos gr?ce ? Sportograf126.9811VAN WAES Patrick50BEL1:26:134:06 14.682M50132LOKEREN
Vos photos gr?ce ? Sportograf127.3292ROY Thibault25FRA1:26:194:06 14.6683SEH133BRUXELLES
Vos photos gr?ce ? Sportograf128.3165VANDENDRIESSCHE Arnaud35BEL1:26:204:06 14.6617M35134BINCHE
Vos photos gr?ce ? Sportograf129.3106VAN DE GOOR Gianpietro49CHE1:26:264:06 14.6511M45135SCHAERBEEK
Vos photos gr?ce ? Sportograf130.6266VAN DEN BEGIN Peter20BEL1:26:274:06 14.6484SEH136PUURS
Vos photos gr?ce ? Sportograf131.3490VAN NECK Raphaël31BEL1:26:294:06 14.6485SEH137ETTERBEEK
Vos photos gr?ce ? Sportograf132.10276GIELKENS Christophe25BEL1:26:294:06 14.6486SEH138LINDEN
Vos photos gr?ce ? Sportograf133.3342ØRNFJORD Martin28NOR1:26:314:07 14.6387SEH139OSLO
Vos photos gr?ce ? Sportograf134.3152JALLOH Ibrahim45GBR1:26:314:07 14.6312M45140LONDON
Vos photos gr?ce ? Sportograf135.12147COLLAER Christophe33BEL1:26:324:07 14.6388SEH141UCCLE
Vos photos gr?ce ? Sportograf136.3247VANDINGENEN Kristof33BEL1:26:364:07 14.6289SEH142MEERHOUT
Vos photos gr?ce ? Sportograf137.6388VANBELLAIENGH Julien22BEL1:26:384:07 14.6190SEH143SOIGNIES
Vos photos gr?ce ? Sportograf138.10613DAEMS Jan41BEL1:26:394:07 14.6117M40144
Vos photos gr?ce ? Sportograf139.3113BOULANGÉ Thierry39FRA1:26:414:07 14.6018M35145UCCLE
Vos photos gr?ce ? Sportograf140.8043JOHN John28AUS1:26:424:07 14.6091SEH146IXELLES, BRUSSELS
Vos photos gr?ce ? Sportograf141.10730DESSY David42BEL1:26:484:07 14.5818M40147
Vos photos gr?ce ? Sportograf142.3054BODART Serge58BEL1:26:484:07 14.581M55148BRUXELLES
Vos photos gr?ce ? Sportograf143.3137KESTERMONT Bruno50BEL1:26:504:07 14.583M50149HUIZINGEN
Vos photos gr?ce ? Sportograf144.3358AELVOET Bart32BEL1:26:534:08 14.5792SEH150LINKEBEEK
Vos photos gr?ce ? Sportograf145.3143BERTOCCHI Guillaume36FRA1:26:584:08 14.5619M35151HEVERLEE
Vos photos gr?ce ? Sportograf146.8377DE GRAEF Yvan Emiel36BEL1:27:014:08 14.5520M35152MECHELEN
Vos photos gr?ce ? Sportograf147.4980SANSONI Michele39ITA1:27:014:08 14.5521M35153IXELLES
Vos photos gr?ce ? Sportograf148.7522MILLS Robert24GBR1:27:074:08 14.5393SEH154PRINCES RISBOROUGH
Vos photos gr?ce ? Sportograf149.5145VANSUMERE Sander31BEL1:27:084:08 14.5394SEH155VORST
Vos photos gr?ce ? Sportograf150.3078BOLAND Patrick38BEL1:27:094:08 14.5222M35156BRUXELLES
Vos photos gr?ce ? Sportograf151.3269JACKSON Thomas31GBR1:27:114:08 14.5295SEH157LEEDS
Vos photos gr?ce ? Sportograf152.11724CHALIAUD Fabien32BEL1:27:124:08 14.5296SEH158BRUXELLES
Vos photos gr?ce ? Sportograf153.3612HIMPENS Joris26BEL1:27:144:09 14.5197SEH159HEVERLEE
Vos photos gr?ce ? Sportograf154.6793LAMPENS Dieter26BEL1:27:164:09 14.5198SEH160DE PINTE
Vos photos gr?ce ? Sportograf155.6391BYRNE Mark33GBR1:27:164:09 14.5099SEH161WETHERBY
Vos photos gr?ce ? Sportograf156.6639DANJEAN Robin25FRA1:27:164:09 14.50100SEH162LE NEUBOURG
Vos photos gr?ce ? Sportograf157.3329DRAHOKOUPIL Jan36CZE1:27:174:09 14.5023M35163WATERMAEL-BOITSFORT
Vos photos gr?ce ? Sportograf158.9485THEUNIS Lukas20BEL1:27:234:09 14.49101SEH164LUBBEEK
Vos photos gr?ce ? Sportograf159.6230DURVIAUX Alexis25BEL1:27:244:09 14.48102SEH165WAVRE
Vos photos gr?ce ? Sportograf160.5775RIGBY Cameron31GBR1:27:244:09 14.48103SEH166LEEDS
Vos photos gr?ce ? Sportograf161.3050SCHRANS Nicolas25BEL1:27:284:09 14.47104SEH167SCHAARBEEK
Vos photos gr?ce ? Sportograf162.10657ADAM Geert52BEL1:27:314:09 14.464M50168
Vos photos gr?ce ? Sportograf163.3290BROECKHOVE Wouter25BEL1:27:324:09 14.46105SEH169MERELBEKE
Vos photos gr?ce ? Sportograf164.10040CAMBIER Etienne38BEL1:27:374:10 14.4524M35170HANNUT
Vos photos gr?ce ? Sportograf165.9956MONTERO Pierre51BEL1:27:384:10 14.455M50171AUDERGHEM
Vos photos gr?ce ? Sportograf166.10811LENELLE Grégoire31BEL1:27:414:10 14.44106SEH172
Vos photos gr?ce ? Sportograf167.3356PEETERS Tim40BEL1:27:504:10 14.4119M40173LEUVEN
Vos photos gr?ce ? Sportograf168.6681MOODIE Andrew55GBR1:27:514:10 14.412M55175HARROGATE
Vos photos gr?ce ? Sportograf169.9442DIERIKS Koen31BEL1:27:514:10 14.41107SEH176PUURS
Vos photos gr?ce ? Sportograf170.3151MINNE Sébastien36BEL1:27:524:10 14.4125M35177BRUXELLES
Vos photos gr?ce ? Sportograf171.9188TASTENOYE Bart37BEL1:27:524:10 14.4126M35178LEEFDAAL
Vos photos gr?ce ? Sportograf172.5969SEILLES Jocelyn41FRA1:27:544:10 14.4020M40179UCCLE
Vos photos gr?ce ? Sportograf173.10341BODART Hadelin23BEL1:27:554:11 14.40108SEH180RIXENSART
Vos photos gr?ce ? Sportograf174.7797SCATIGNA Pietro32ITA1:27:564:11 14.40109SEH181LEUVEN
Vos photos gr?ce ? Sportograf175.5954ROY Xavier23FRA1:27:574:11 14.39110SEH182BOULOGNE BILLANCOURT
Vos photos gr?ce ? Sportograf176.3902SEGERS Erwin51BEL1:27:574:11 14.396M50183DENDERLEEUW
Vos photos gr?ce ? Sportograf177.10083JANSSENS Eric45BEL1:27:574:11 14.3913M45184SCHAERBEEK
Vos photos gr?ce ? Sportograf178.8486HUBERT Romain21BEL1:28:014:11 14.38111SEH185ZAVENTEM
Vos photos gr?ce ? Sportograf179.12421DAOUST Kevin33BEL1:28:044:11 14.37112SEH186SPONTIN
Vos photos gr?ce ? Sportograf180.6209FRANCIOLI Arnaud32CHE1:28:094:11 14.36113SEH187EVERE
Vos photos gr?ce ? Sportograf181.10179RODRIQUE Emmanuel49BEL1:28:114:11 14.3614M45188ANTHEIT
Vos photos gr?ce ? Sportograf182.6956BEYERS Jens21BEL1:28:114:11 14.35114SEH189SINT-LENAARTS
Vos photos gr?ce ? Sportograf183.4809SARWARY Mirwais29NLD1:28:134:11 14.35115SEH190BRUSSEL
Vos photos gr?ce ? Sportograf184.4477VAN HUFFEL Thomas29BEL1:28:154:11 14.34116SEH191BORSBEEK
Vos photos gr?ce ? Sportograf185.5461BOSMANS Bart40BEL1:28:174:12 14.3421M40193WIJGMAAL
Vos photos gr?ce ? Sportograf186.7790MACRAE Rory46GBR1:28:224:12 14.3315M45195IXELLES
Vos photos gr?ce ? Sportograf187.8303VANHEYSTE Gerben36BEL1:28:244:12 14.3227M35196SPE
Vos photos gr?ce ? Sportograf188.7561DE WINDT Philippe38BEL1:28:264:12 14.3128M35197ADEGEM
Vos photos gr?ce ? Sportograf189.4374LEGER Cedric40FRA1:28:274:12 14.3122M40198PARIS
Vos photos gr?ce ? Sportograf190.10190DOMS Stijn36BEL1:28:314:12 14.3029M35199WINTAM
Vos photos gr?ce ? Sportograf191.3075JANSSENS Dirk49BEL1:28:324:12 14.3016M45200KESSEL-LO
Vos photos gr?ce ? Sportograf192.3291NIJLAND Ben58NLD1:28:344:12 14.293M55201SAASVELD
Vos photos gr?ce ? Sportograf193.4789BELLUCCI Vincent27FRA1:28:354:12 14.29117SEH202IXELLES
Vos photos gr?ce ? Sportograf194.3240WOODWARD Logan16BEL1:28:364:12 14.29118SEH203BRUXELLES
Vos photos gr?ce ? Sportograf195.5886LIBBRECHT Wannes28BEL1:28:394:13 14.28119SEH204GENT
Vos photos gr?ce ? Sportograf196.7885DE LAET Simon26BEL1:28:424:13 14.27120SEH205ANTWERPEN
Vos photos gr?ce ? Sportograf197.3109DE LA MATA Faustino40BEL1:28:444:13 14.2723M40206TUBIZE
Vos photos gr?ce ? Sportograf198.3294MARTINOT Jean-Claude52FRA1:28:444:13 14.277M50207VILLEJUIF
Vos photos gr?ce ? Sportograf199.9302DE GROOTE Charles29BEL1:28:444:13 14.27121SEH208LASNE
Vos photos gr?ce ? Sportograf200.3359BOUTCHICH El Bekkaye36MAR1:28:454:13 14.2630M35209ANDERLECHT
Vos photos gr?ce ? Sportograf201.7272GUTIERREZ Guillermo56ESP1:28:464:13 14.264M55210TOKYO
Vos photos gr?ce ? Sportograf202.12419THYS Xavier46BEL1:28:494:13 14.2517M45211ARSIMONT
Vos photos gr?ce ? Sportograf203.10084DE GROOF Peter42BEL1:28:504:13 14.2524M40212TERVUREN
Vos photos gr?ce ? Sportograf204.7553BORDONI Leonardo Santos39BRA1:28:504:13 14.2531M35213BELO HORIZONTE
Vos photos gr?ce ? Sportograf205.9064TAS Máté37HUN1:28:534:13 14.2432M35214UCCLE
Vos photos gr?ce ? Sportograf206.11779GEORGIOPOULOS Michail32GRC1:28:544:13 14.24122SEH215ATHENS
Vos photos gr?ce ? Sportograf207.3014URIEN Nicholas31FRA1:28:554:13 14.24123SEH216IXELLES
Vos photos gr?ce ? Sportograf208.6279HURLEY Alexander41IRL1:28:574:13 14.2325M40217UCCLE
Vos photos gr?ce ? Sportograf209.8218DEMUYSER Christophe32BEL1:28:584:14 14.23124SEH218COURT ST ETIENNE
Vos photos gr?ce ? Sportograf210.9885VANOVERBEKE Lowie22BEL1:29:004:14 14.22125SEH219MOORSELE
Vos photos gr?ce ? Sportograf211.3144BOHAN Niall49IRL1:29:074:14 14.2018M45220BRUSSELS
Vos photos gr?ce ? Sportograf212.7744SIMONART Julien18BEL1:29:104:14 14.20126SEH221BRUXELLES
Vos photos gr?ce ? Sportograf213.5734LEMAITRE Marc43LUX1:29:134:14 14.1926M40222BRUXELLES
Vos photos gr?ce ? Sportograf214.10444LANGENDRIES Ronny50BEL1:29:134:14 14.198M50223
Vos photos gr?ce ? Sportograf215.9340SEYNAEVE Arthur16BEL1:29:144:14 14.19127SEH224MEISE
Vos photos gr?ce ? Sportograf216.3037VANDERDONCK Thomas34BEL1:29:144:14 14.18128SEH225BERCHEM
Vos photos gr?ce ? Sportograf217.3115DAMMÉ Laurent24LUX1:29:154:14 14.18129SEH226BASCHARAGE
Vos photos gr?ce ? Sportograf218.3064KAMGA Honoré29BEL1:29:154:14 14.18130SEH227SCHAERBEEK
Vos photos gr?ce ? Sportograf219.8416GOUWY Davy31BEL1:29:154:14 14.18131SEH228TORHOUT
Vos photos gr?ce ? Sportograf220.6568RODRIGUEZ JIMENEZ Oscar47COL1:29:184:14 14.1719M45229BOGOTA
Vos photos gr?ce ? Sportograf221.7841NOUAMANI Mohammed45BEL1:29:204:15 14.1720M45230GANSHOREN
Vos photos gr?ce ? Sportograf222.9696DE TROYER Olivier25BEL1:29:204:15 14.17132SEH231NINOVE
Vos photos gr?ce ? Sportograf223.5721RAMONEDA Igor39FRA1:29:214:15 14.1733M35232AUDERGHEM
Vos photos gr?ce ? Sportograf224.3150LAVRYSEN Laurens29BEL1:29:234:15 14.16133SEH233LEDEBERG
Vos photos gr?ce ? Sportograf225.3217BARANSKY Patrick43ZAF1:29:244:15 14.1627M40234UTRECHT
Vos photos gr?ce ? Sportograf226.6895GARCÍA V BIJSTERVELD Marco16BEL1:29:274:15 14.15134SEH235WATERMAAL BOSVOORDE
Vos photos gr?ce ? Sportograf227.4663KHALILI Payâm28BEL1:29:274:15 14.15135SEH236BRUSSEL
Vos photos gr?ce ? Sportograf228.8469ZALRHI Fawzi37BEL1:29:304:15 14.1434M35237MOLENBEEK-SAINT-JEAN
Vos photos gr?ce ? Sportograf229.5482RENIER Jonathan32BEL1:29:344:15 14.13136SEH238WOLUWE-SAINT-LAMBERT
Vos photos gr?ce ? Sportograf230.3216VERBESSELT Tony46BEL1:29:364:15 14.1321M45239HOEILAART
Vos photos gr?ce ? Sportograf231.10219RASSON Nicolas36BEL1:29:374:15 14.1235M35240BRUXELLES
Vos photos gr?ce ? Sportograf232.9564FINE Joel38GBR1:29:374:15 14.1236M35241BRUSSELS
Vos photos gr?ce ? Sportograf233.11656BERNAGIE Steven45BEL1:29:384:15 14.1222M45243LEUVEN
Vos photos gr?ce ? Sportograf234.9294TIELEN Robin38BEL1:29:384:15 14.1237M35244HEUSDEN - ZOLDER
Vos photos gr?ce ? Sportograf235.6494JONCKHEERE Laurent21BEL1:29:424:16 14.11137SEH246RIXENSART
Vos photos gr?ce ? Sportograf236.6465BOIZET Laurent48FRA1:29:434:16 14.1123M45247FAINS VEEL
Vos photos gr?ce ? Sportograf237.12397HARDENNE André51BEL1:29:464:16 14.109M50248LA HESTRE
Vos photos gr?ce ? Sportograf238.3220VAN VRACEM Thibaut25BEL1:29:464:16 14.10138SEH249IXELLES
Vos photos gr?ce ? Sportograf239.9731VAN LOOVEREN Bert24BEL1:29:484:16 14.10139SEH250WUUSTWEZEL
Vos photos gr?ce ? Sportograf240.3331FILIP Verbinnen36BEL1:29:484:16 14.1038M35251HOEGAARDEN
Vos photos gr?ce ? Sportograf241.4813HORNARD Jonathan28BEL1:29:494:16 14.09140SEH252BRUXELLES
Vos photos gr?ce ? Sportograf242.3093MARQUES CASTANHEIRA João46BEL1:29:494:16 14.0924M45253UCCLE
Vos photos gr?ce ? Sportograf243.9653VAN DEN BORRE Jeroen28BEL1:29:504:16 14.09141SEH254AFFLIGEM
Vos photos gr?ce ? Sportograf244.9810TOUSSAINT Frédéric48BEL1:29:504:16 14.0925M45255BRUXELLES
Vos photos gr?ce ? Sportograf245.9155DE CROMBRUGGHE Antoine25BEL1:29:504:16 14.09142SEH256OVERIJSE
Vos photos gr?ce ? Sportograf246.3654VAN BAELEN Matthias29BEL1:29:544:16 14.08143SEH257
Vos photos gr?ce ? Sportograf247.3085KAMINSKI Stephan37BEL1:29:554:16 14.0839M35258BRUXELLES
Vos photos gr?ce ? Sportograf248.3163ROSSIGNOL Olivier46BEL1:29:574:16 14.0726M45259AUDERGHEM
Vos photos gr?ce ? Sportograf249.5968LEBACQ Louis35BEL1:29:594:16 14.0740M35260BRUXELLES
Vos photos gr?ce ? Sportograf250.9914CHEVALIER Fabian34BEL1:29:594:16 14.07144SEH261BIOUL
Vos photos gr?ce ? Sportograf251.5319CLEMENT Colin27FRA1:30:004:16 14.06145SEH262SAINT-AMÉ
Vos photos gr?ce ? Sportograf252.4174GAIJI Lassaad37TUN1:30:014:16 14.0641M35263BRUXELES
Vos photos gr?ce ? Sportograf253.3142PAULO Luis50PRT1:30:014:17 14.0610M50264BRUXELLES
Vos photos gr?ce ? Sportograf254.3146CAUFRIEZ Olivier33BEL1:30:024:17 14.06146SEH265JETTE
Vos photos gr?ce ? Sportograf255.9752VANASSCHE Thomas34BEL1:30:024:17 14.06147SEH266HEVERLEE
Vos photos gr?ce ? Sportograf256.3670CALLEBAUT Cedric34BEL1:30:044:17 14.05148SEH267
Vos photos gr?ce ? Sportograf257.5055VERSTRAETEN Jordi19BEL1:30:064:17 14.05149SEH268LEUVEN
Vos photos gr?ce ? Sportograf258.5794GROOT François29FRA1:30:074:17 14.05150SEH269CHARENTON LE PONT
Vos photos gr?ce ? Sportograf259.3895TOUSSAINT Sebastien29BEL1:30:104:17 14.04151SEH270HOEILAART
Vos photos gr?ce ? Sportograf260.3371ROY Matthieu35FRA1:30:104:17 14.0442M35271SCHAERBEEK
Vos photos gr?ce ? Sportograf261.3028MATHONET Raphaël35BEL1:30:124:17 14.0343M35272LIERS
Vos photos gr?ce ? Sportograf262.8248NR 8248 -1:30:124:17 14.03-273
Vos photos gr?ce ? Sportograf263.4977CLAERHOUT Tim29BEL1:30:124:17 14.03152SEH274SINT-ANDRIES
Vos photos gr?ce ? Sportograf264.4311KUPCSIK Laszlo38HUN1:30:124:17 14.0344M35275BRUXELLES
Vos photos gr?ce ? Sportograf265.9512MOLENBERGHS Geert51BEL1:30:144:17 14.0311M50276HEVERLEE
Vos photos gr?ce ? Sportograf266.4026VALLÉ Kurt35BEL1:30:154:17 14.0345M35277MOORSELE
Vos photos gr?ce ? Sportograf267.3102DELCOURT Olivier38BEL1:30:154:17 14.0246M35278DE PINTE
Vos photos gr?ce ? Sportograf268.4944BILLIET Wim34BEL1:30:164:17 14.02153SEH279HOBOKEN
Vos photos gr?ce ? Sportograf269.3168AZOU Stijn39BEL1:30:184:17 14.0247M35280IZEGEM
Vos photos gr?ce ? Sportograf270.5646VERHEYDEN Jan36BEL1:30:204:17 14.0148M35281HERENT
Vos photos gr?ce ? Sportograf271.7633COLMANT Emmanuel39BEL1:30:204:17 14.0149M35282DOUR
Vos photos gr?ce ? Sportograf272.3283DE COCK Peter35BEL1:30:254:18 14.0050M35284MERCHTEM
Vos photos gr?ce ? Sportograf273.9291WEEMAELS Pascal43BEL1:30:254:18 14.0028M40285MERELBEKE
Vos photos gr?ce ? Sportograf274.4974VAN HOLM Mattias31BEL1:30:294:18 13.99154SEH286SINT-ANDRIES
Vos photos gr?ce ? Sportograf275.9047DERACOURT Mario29BEL1:30:294:18 13.99155SEH287KOERSEL
Vos photos gr?ce ? Sportograf276.3324DE VOS Kurt42BEL1:30:294:18 13.9929M40288KONTICH
Vos photos gr?ce ? Sportograf276.9955MEUKENS Kris37BEL1:30:294:18 13.9951M35288KOERSEL
Vos photos gr?ce ? Sportograf278.4130SIPS Joren26BEL1:30:294:18 13.99156SEH290MECHELEN
Vos photos gr?ce ? Sportograf279.3464MARKKANEN Jouni29FIN1:30:304:18 13.99157SEH291TAMPERE
Vos photos gr?ce ? Sportograf280.8458LAMON Simon31BEL1:30:344:18 13.98158SEH293OUDENAARDE
Vos photos gr?ce ? Sportograf281.3063MARTIN RUBIO David41ESP1:30:344:18 13.9830M40294WOLUWE SAINT LAMBERT
Vos photos gr?ce ? Sportograf282.3864VANDEPUT Jan56BEL1:30:364:18 13.975M55295MEENSEL/KIEZEGEM
Vos photos gr?ce ? Sportograf283.5916PIVERT Raphaël37FRA1:30:394:18 13.9652M35296ASNIÈRES SUR SEINE
Vos photos gr?ce ? Sportograf284.4329COADOU Kevin32FRA1:30:414:18 13.96159SEH297GUIDEL
Vos photos gr?ce ? Sportograf285.12329CAMBIER Pierre29BEL1:30:424:18 13.96160SEH298LAEKEN
Vos photos gr?ce ? Sportograf286.8446MARIVOET Ronny50BEL1:30:434:19 13.9512M50299KAPELLE OP DEN BOS
Vos photos gr?ce ? Sportograf287.9427GILLIJNS Matthias38BEL1:30:454:19 13.9553M35300OVERIJSE
Vos photos gr?ce ? Sportograf288.8378GAUSSET Olivier49BEL1:30:454:19 13.9527M45301BRUXELLES
Vos photos gr?ce ? Sportograf289.3961BEUKELAERS Stijn31BEL1:30:474:19 13.94161SEH302HOMBEEK
Vos photos gr?ce ? Sportograf290.10236NEIRYNCK Gunter39BEL1:30:474:19 13.9454M35303HOEILAART
Vos photos gr?ce ? Sportograf291.3317WIMMER Michael42AUT1:30:504:19 13.9431M40304RHODE-SAINT-GENÈSE
Vos photos gr?ce ? Sportograf292.5473DA SILVA MARQUES Ricardo José29PRT1:30:514:19 13.93162SEH305ASSE
Vos photos gr?ce ? Sportograf293.5334DE COCQ Julien17BEL1:30:524:19 13.93163SEH306AUTRE EGLISE
Vos photos gr?ce ? Sportograf294.4027VAN BRUWAENE Rudi64BEL1:30:534:19 13.931M60307TIELT
Vos photos gr?ce ? Sportograf295.3061VERSTREPEN Kevin29BEL1:30:534:19 13.93164SEH308FOREST
Vos photos gr?ce ? Sportograf296.3249DUMORTIER Gael25FRA1:30:564:19 13.92165SEH309COURBEVOIE
Vos photos gr?ce ? Sportograf297.3044IEVEN Cedric27BEL1:30:564:19 13.92166SEH310BRUXELLES
Vos photos gr?ce ? Sportograf298.12404CADO Paul56BEL1:30:584:19 13.926M55311LIGNY
Vos photos gr?ce ? Sportograf299.5076GUENDOUZ Abel-Bahri49FRA1:30:584:19 13.9228M45312MONTLUCON
Vos photos gr?ce ? Sportograf300.4003MATTHEW Newman47USA1:30:594:19 13.9129M45313BRUSSELS
Vos photos gr?ce ? Sportograf301.3233LECOK Harmen29BEL1:31:024:19 13.90167SEH314SCHAARBEEK
Vos photos gr?ce ? Sportograf302.4919OBERSTALLER Philip33ITA1:31:034:19 13.90168SEH315LEUVEN
Vos photos gr?ce ? Sportograf303.3277THIEUW Bert27BEL1:31:034:19 13.90169SEH316IEPER
Vos photos gr?ce ? Sportograf304.7319ÅKESSON Albin28SWE1:31:044:19 13.90170SEH317LINDINGÖ
Vos photos gr?ce ? Sportograf305.11000LANNOOTE Antoine25BEL1:31:044:20 13.90171SEH318BRUXELLES
Vos photos gr?ce ? Sportograf306.3424SPARKS John-Simon33GBR1:31:094:20 13.89172SEH319BRUSSEL
Vos photos gr?ce ? Sportograf307.9733VERHOEVEN Kris36BEL1:31:104:20 13.8955M35320VOSSEM
Vos photos gr?ce ? Sportograf308.7855MAZZAROTTO Ricardo32BRA1:31:124:20 13.88173SEH321CURITIBA
Vos photos gr?ce ? Sportograf309.5802HAUTPHENNE Eddy49BEL1:31:124:20 13.8830M45322WATERLOO
Vos photos gr?ce ? Sportograf310.11661GIGOT Jacques49BEL1:31:134:20 13.8831M45323ANDERLECHT
Vos photos gr?ce ? Sportograf311.4439VANNESTE Jeroen30BEL1:31:144:20 13.87174SEH325GENT
Vos photos gr?ce ? Sportograf312.5088DELVAL Tanguy22BEL1:31:154:20 13.87175SEH326LIMELETTE
Vos photos gr?ce ? Sportograf313.3125GRUDNIAK Pawel42POL1:31:194:20 13.8632M40327KRAAINEM
Vos photos gr?ce ? Sportograf314.3211SMET Thomas35BEL1:31:204:20 13.8656M35328SINT-NIKLAAS
Vos photos gr?ce ? Sportograf315.6113DE BAEREMAEKER Joeri34BEL1:31:204:20 13.86176SEH329AALST
Vos photos gr?ce ? Sportograf316.3405RENARD Nicolas37BEL1:31:214:20 13.8657M35330KRAAINEM
Vos photos gr?ce ? Sportograf317.3114VERHIMST Eric47BEL1:31:214:20 13.8632M45331DILBEEK
Vos photos gr?ce ? Sportograf318.5720TRABERT Attila33HUN1:31:234:20 13.85177SEH332BUDAPEST
Vos photos gr?ce ? Sportograf319.3239REINEDAHL Niklas39SWE1:31:254:20 13.8558M35333WATERLOO
Vos photos gr?ce ? Sportograf320.9259LIPPOLIS Adrien29ITA1:31:264:21 13.84178SEH334BRUXELLES
Vos photos gr?ce ? Sportograf321.3265DANIEL Ferrie26IRL1:31:264:21 13.84179SEH335ELSENE
Vos photos gr?ce ? Sportograf322.7450AINLEY Jonathan38GBR1:31:274:21 13.8459M35336READING
Vos photos gr?ce ? Sportograf323.10317LEGAST Thomas25BEL1:31:304:21 13.84180SEH337SAINT-GILLES
Vos photos gr?ce ? Sportograf324.4528KROLS Kyoo31BEL1:31:324:21 13.83181SEH338MORTSEL
Vos photos gr?ce ? Sportograf325.11753DELOZ Arthur16BEL1:31:324:21 13.83182SEH339ASSE
Vos photos gr?ce ? Sportograf326.3349DOUAY Nicolas33FRA1:31:334:21 13.83183SEH340PARIS
Vos photos gr?ce ? Sportograf327.11703SMETS Christophe52BEL1:31:344:21 13.8213M50341BRUXELLES
Vos photos gr?ce ? Sportograf328.8174GHEERAERT Sven46BEL1:31:354:21 13.8233M45342VILVOORDE
Vos photos gr?ce ? Sportograf329.4088JUNQUÉ Timothée16BEL1:31:364:21 13.82184SEH343UCCLE
Vos photos gr?ce ? Sportograf330.5481LISSAJOUX Kévin27FRA1:31:384:21 13.82185SEH344PARIS
Vos photos gr?ce ? Sportograf330.5766PEETERS Daan25BEL1:31:384:21 13.82185SEH344SCHAARBEEK
Vos photos gr?ce ? Sportograf332.5452WALRAVENS Benoit34BEL1:31:414:21 13.81187SEH346OTTIGNIES
Vos photos gr?ce ? Sportograf333.8418KJOLSETH Hans35NOR1:31:424:21 13.8060M35347ETTERBEEK
Vos photos gr?ce ? Sportograf334.9189MBONIHANKUYE Michel35BEL1:31:464:21 13.7961M35348BRUXELLES
Vos photos gr?ce ? Sportograf335.9637IMBO Yannick40BEL1:31:484:22 13.7933M40350AALTER
Vos photos gr?ce ? Sportograf336.9475DE POTTER Peter46BEL1:31:524:22 13.7834M45352TERNAT
Vos photos gr?ce ? Sportograf337.3187CLAES Vincent25BEL1:31:534:22 13.78188SEH353PAAL-BERINGEN
Vos photos gr?ce ? Sportograf338.10721CORIN Didier45BEL1:31:564:22 13.7735M45354
Vos photos gr?ce ? Sportograf339.6533VERSET Vincent37BEL1:31:564:22 13.7762M35356BRUXELLES
Vos photos gr?ce ? Sportograf340.6295HUYBRECHTS Nils38BEL1:31:574:22 13.7763M35357ZOERSEL
Vos photos gr?ce ? Sportograf341.3445COUDER Stino37BEL1:31:574:22 13.7764M35358OVERIJSE
Vos photos gr?ce ? Sportograf342.10100QUERTEMONT Christophe43BEL1:32:024:22 13.7534M40359WATERLOO
Vos photos gr?ce ? Sportograf343.3310HELLIN Guillaume25BEL1:32:024:22 13.75189SEH360BRUXELLES
Vos photos gr?ce ? Sportograf344.11773OGNIO Franco22ARG1:32:034:22 13.75190SEH361IXELLES, BRUSSELS
Vos photos gr?ce ? Sportograf345.3083VIGNES Michaël36FRA1:32:044:22 13.7565M35362BON-ENCONTRE
Vos photos gr?ce ? Sportograf346.3067DE CRAWHEZ Francois39BEL1:32:064:22 13.7466M35363UCCLE
Vos photos gr?ce ? Sportograf347.6121CONSEIL Laurent47FRA1:32:094:23 13.7436M45364PARIS
Vos photos gr?ce ? Sportograf348.9464WAUTERS Karl48BEL1:32:134:23 13.7337M45365LEUVEN
Vos photos gr?ce ? Sportograf349.4154GUINAND Cédric45CHE1:32:144:23 13.7238M45366GENÈVE
Vos photos gr?ce ? Sportograf350.8342HAULOT Eric42BEL1:32:154:23 13.7235M40367BRUXELLES
Vos photos gr?ce ? Sportograf351.3284WARTON Michel48BEL1:32:164:23 13.7239M45368DILBEEK
Vos photos gr?ce ? Sportograf352.9561CASSIMON Stefan55BEL1:32:194:23 13.717M55369KAPELLEN
Vos photos gr?ce ? Sportograf353.7365LARA Mario34ESP1:32:264:23 13.69191SEH370MADRID
Vos photos gr?ce ? Sportograf354.4898MUYLKENS Vincent48BEL1:32:274:23 13.6940M45371BOLLAND
Vos photos gr?ce ? Sportograf355.9782DE CAE Jörg26BEL1:32:274:23 13.69192SEH372EDEGEM
Vos photos gr?ce ? Sportograf356.3199SCUBLA Michael29BEL1:32:274:23 13.69193SEH373BRAINE LE COMTE
Vos photos gr?ce ? Sportograf357.3081IANISKI DOS SANTOS Willian30BRA1:32:274:23 13.69194SEH374BRUXELLES
Vos photos gr?ce ? Sportograf358.3525FISCHER Jean-Luc41FRA1:32:304:24 13.6836M40375WESTHOFFEN
Vos photos gr?ce ? Sportograf359.3325ANDRIS Veriks37LVA1:32:324:24 13.6867M35376RIGA
Vos photos gr?ce ? Sportograf360.7341ROZENTAL David41BEL1:32:344:24 13.6737M40377BRUXELLES
Vos photos gr?ce ? Sportograf361.3076DE POOTER David45BEL1:32:354:24 13.6741M45378EPPEGEM
Vos photos gr?ce ? Sportograf362.10279VAN DEN BROEK Vincent37BEL1:32:374:24 13.6768M35379BRUXELLES
Vos photos gr?ce ? Sportograf363.10964BICCAI Stefano39ITA1:32:374:24 13.6769M35380NEDER-OVER-HEEMBEEK
Vos photos gr?ce ? Sportograf364.4612HARTLEY James35BEL1:32:384:24 13.6770M353811030
Vos photos gr?ce ? Sportograf365.3153DELEU Dominique52BEL1:32:394:24 13.6614M50382DILBEEK
Vos photos gr?ce ? Sportograf366.7310MAMPUYS Sam32BEL1:32:404:24 13.66195SEH383ANTWERPEN
Vos photos gr?ce ? Sportograf367.4908SHINICHI Takeda30JPN1:32:404:24 13.66196SEH384BRUSSEL
Vos photos gr?ce ? Sportograf368.3087VERSCHUERE Lode38BEL1:32:414:24 13.6671M35385KESSEL-LO
Vos photos gr?ce ? Sportograf369.6495DUERLOO Jan26BEL1:32:424:24 13.66197SEH386WUUSTWEZEL
Vos photos gr?ce ? Sportograf370.3230SCHOUTTETEN Kenny34BEL1:32:424:24 13.65198SEH387COUTHUIN
Vos photos gr?ce ? Sportograf371.3158VRIJDAGHS Steven42BEL1:32:434:24 13.6538M40388OVERIJSE
Vos photos gr?ce ? Sportograf372.11707DE BLOCK Kristof38BEL1:32:444:24 13.6572M35389BRUSSEL
Vos photos gr?ce ? Sportograf373.5125SEGHIN Paul23BEL1:32:464:24 13.65199SEH390ETTERBEEK
Vos photos gr?ce ? Sportograf374.5093PEETERS Jules20BEL1:32:464:24 13.65200SEH391LUBBEEK
Vos photos gr?ce ? Sportograf375.3212CORNE Jan34BEL1:32:474:24 13.64201SEH392WICHELEN
Vos photos gr?ce ? Sportograf376.8078GRAND Joe41USA1:32:504:25 13.6439M40393PORTLAND
Vos photos gr?ce ? Sportograf377.9669VANDEPUTTE Thibault19BEL1:32:524:25 13.63202SEH394OUDENAARDE
Vos photos gr?ce ? Sportograf378.10195HUNNINCK Ken30BEL1:32:524:25 13.63203SEH396NIEUWENHOVE
Vos photos gr?ce ? Sportograf379.6744SINIAWSKI Nicolas38FRA1:32:544:25 13.6373M35397PANTIN
Vos photos gr?ce ? Sportograf380.8102PIERARD Jeremy37BEL1:32:544:25 13.6274M35398BOUSSU
Vos photos gr?ce ? Sportograf381.4632SOKOLOWSKI Lukasz36POL1:32:554:25 13.6275M35399EVERE
Vos photos gr?ce ? Sportograf382.3257FAUCHON Sylvain24FRA1:32:574:25 13.62204SEH400VINCENNES
Vos photos gr?ce ? Sportograf383.3197BERTICAT Gael35FRA1:32:594:25 13.6176M35401IXELLES
Vos photos gr?ce ? Sportograf384.8230BAUDOT Antoine33BEL1:32:594:25 13.61205SEH402SCHAERBEEK
Vos photos gr?ce ? Sportograf385.3381MERCHIE Frédéric47BEL1:33:004:25 13.6142M45403BEERSEL
Vos photos gr?ce ? Sportograf386.5130HERREMANS Wim42BEL1:33:004:25 13.6140M40404KESSEL-LO
Vos photos gr?ce ? Sportograf387.9126LECLERCQZ Jean26BEL1:33:014:25 13.61206SEH405MONS
Vos photos gr?ce ? Sportograf388.3256PENTTINEN Ilkka28FIN1:33:014:25 13.61207SEH406IXELLES
Vos photos gr?ce ? Sportograf389.7811SOLIS Dante28USA1:33:024:25 13.61208SEH407BRUSSEL
Vos photos gr?ce ? Sportograf390.11774KESSELS Didier45BEL1:33:034:25 13.6043M45408WOLUWE-ST-LAMBERT
Vos photos gr?ce ? Sportograf391.5946LE POLAIN Nicolas36BEL1:33:044:25 13.6077M35409FOREST
Vos photos gr?ce ? Sportograf392.7339SKRUBBE Jens43SWE1:33:054:25 13.6041M40410STOCKHOLM
Vos photos gr?ce ? Sportograf393.10119AUSPERT Matthias25BEL1:33:054:25 13.60209SEH411HUY
Vos photos gr?ce ? Sportograf394.11734CODUTTI Marco48BEL1:33:064:25 13.6044M45412BRUXELLES
Vos photos gr?ce ? Sportograf395.9822ALEDDA Valentino34ITA1:33:074:25 13.59210SEH414BRUSSEL
Vos photos gr?ce ? Sportograf396.6175BRUNEIN Lorenzo39BEL1:33:084:25 13.5978M35415ERPS-KWERPS
Vos photos gr?ce ? Sportograf397.5026LAGAST Dominique47BEL1:33:084:25 13.5945M45416DE PINTE
Vos photos gr?ce ? Sportograf398.8135BOEDTS Julien Jean25BEL1:33:084:25 13.59211SEH417UCCLE
Vos photos gr?ce ? Sportograf399.3160COESSENS Piet41BEL1:33:084:25 13.5942M40418HEUSDEN
Vos photos gr?ce ? Sportograf400.11732VANDENBUSSCHE Jérémie38BEL1:33:094:25 13.5979M35419BRUXELLES
Vos photos gr?ce ? Sportograf401.5237HANNOTTE Christophe43BEL1:33:114:26 13.5843M40420NOVILLE-LES-BOIS
Vos photos gr?ce ? Sportograf402.4778CAMPBELL Andrew25GBR1:33:124:26 13.58212SEH421ST ALBANS
Vos photos gr?ce ? Sportograf403.4188GUTIERREZ Thoralf26BEL1:33:144:26 13.58213SEH422BRUXELLES
Vos photos gr?ce ? Sportograf404.5462TAYMANS Christophe44BEL1:33:144:26 13.5844M40423OVERIJSE
Vos photos gr?ce ? Sportograf405.3994JORDAN Ellison34GBR1:33:154:26 13.57214SEH424BRUSSELS
Vos photos gr?ce ? Sportograf406.9962MATTYS Dirk45BEL1:33:174:26 13.5746M45425EVERBERG
Vos photos gr?ce ? Sportograf407.5349VANDENBUSSCHE Diether27BEL1:33:174:26 13.57215SEH426GENT
Vos photos gr?ce ? Sportograf408.3225VANDENBORRE Julien29BEL1:33:204:26 13.56216SEH427BRUXELLES
Vos photos gr?ce ? Sportograf409.7908REGINARD Nicolas39FRA1:33:224:26 13.5680M35428BOIS-COLOMBES
Vos photos gr?ce ? Sportograf410.6615SMITH Alexander28GBR1:33:244:26 13.55217SEH429LONDON
Vos photos gr?ce ? Sportograf411.6924LANGLET Thomas26FRA1:33:244:26 13.55218SEH430SAINT MAUR DES FOSSES
Vos photos gr?ce ? Sportograf412.6684EYCHENNE Adrien32FRA1:33:244:26 13.55219SEH431GENÈVE
Vos photos gr?ce ? Sportograf413.5378VANSCHOENBEEK Bart39BEL1:33:254:26 13.5581M35432WAASMONT
Vos photos gr?ce ? Sportograf414.3072MATTELET Julien36BEL1:33:254:26 13.5582M35433WOLUWÉ SAINT-PIERRE
Vos photos gr?ce ? Sportograf415.3286VRANCKEN Kris38BEL1:33:264:26 13.5583M35434HASSELT
Vos photos gr?ce ? Sportograf416.3086EKELSON Janny51BEL1:33:274:26 13.5415M50435TILDONK
Vos photos gr?ce ? Sportograf417.3183PIRLOT Gilles24BEL1:33:284:26 13.54220SEH436LOUVAIN-LA-NEUVE
Vos photos gr?ce ? Sportograf418.6644GEROMETTA Marco36ITA1:33:314:26 13.5484M35437WOLUWE - ST PIERRE
Vos photos gr?ce ? Sportograf419.3313GAUDISSART François-Xavier23BEL1:33:334:27 13.53221SEH438SINT LAMBRECHTS WOLUWE
Vos photos gr?ce ? Sportograf420.10594BORIES Joeri28BEL1:33:344:27 13.53222SEH439
Vos photos gr?ce ? Sportograf421.10984MORRIS Liam36IRL1:33:354:27 13.5385M35440BRUSSELS
Vos photos gr?ce ? Sportograf422.5084KEUTEL Pierre34DEU1:33:364:27 13.52223SEH441SAINT GILLES
Vos photos gr?ce ? Sportograf423.7644GHOLAMI Shafiullah22BEL1:33:364:27 13.52224SEH442BRUSSEL
Vos photos gr?ce ? Sportograf424.5926MILLER Benoît29BEL1:33:364:27 13.52225SEH443BRUXELLES
Vos photos gr?ce ? Sportograf425.12307DILLIES Clement33FRA1:33:364:27 13.52226SEH444PERWEZ
Vos photos gr?ce ? Sportograf426.12161DEGRYSE Thomas30BEL1:33:394:27 13.52227SEH445ANDERLECHT
Vos photos gr?ce ? Sportograf427.9803DEBRAS Bruno17BEL1:33:414:27 13.51228SEH448FALMIGNOUL
Vos photos gr?ce ? Sportograf428.3605VANDENHOVE Gérald31BEL1:33:424:27 13.51229SEH449PERWEZ
Vos photos gr?ce ? Sportograf429.8071ALBERT Martin30ESP1:33:434:27 13.51230SEH450LYON
Vos photos gr?ce ? Sportograf430.8485DE PRETER Sibren25BEL1:33:434:27 13.51231SEH451KESSEL LO
Vos photos gr?ce ? Sportograf431.9122AERTS Stijn40BEL1:33:444:27 13.5045M40452LEEST
Vos photos gr?ce ? Sportograf432.9610QUINTIN Antoine21BEL1:33:454:27 13.50232SEH453INCOURT
Vos photos gr?ce ? Sportograf433.8450VAN BOXEL Matthijs25BEL1:33:464:27 13.50233SEH454LEUVEN
Vos photos gr?ce ? Sportograf434.5627POUPAT Lionel41FRA1:33:474:27 13.5046M40455PARIS
Vos photos gr?ce ? Sportograf435.7032CHARLES Tippleston49GBR1:33:494:27 13.4947M45456ASHFORD,SURREY
Vos photos gr?ce ? Sportograf436.4302JOLY Patrick50BEL1:33:504:27 13.4916M50457BRUXELLES
Vos photos gr?ce ? Sportograf437.7995MARTIN Fernando49ESP1:33:514:27 13.4948M45458BELGIUM
Vos photos gr?ce ? Sportograf438.5616DE BACKER Julien27BEL1:33:524:27 13.49234SEH459SAINT-GILLES
Vos photos gr?ce ? Sportograf439.10665MEYS Frédéric34BEL1:33:534:28 13.48235SEH460
Vos photos gr?ce ? Sportograf440.4879LINSEN Max33NLD1:33:534:28 13.48236SEH461BRUSSEL
Vos photos gr?ce ? Sportograf441.4161CHASSOT Roger49CHE1:33:554:28 13.4849M45462LE LIGNON
Vos photos gr?ce ? Sportograf442.9772MAY Kristof33BEL1:33:564:28 13.48237SEH465OUD-HEVERLEE
Vos photos gr?ce ? Sportograf443.3077BURTON Richard41GBR1:33:564:28 13.4847M40466BRUSSEL
Vos photos gr?ce ? Sportograf444.4589SEYNAEVE Frank37BEL1:33:574:28 13.4786M35467DEURNE
Vos photos gr?ce ? Sportograf445.10254MARTINY Olivier24BEL1:33:584:28 13.47238SEH468BRUXELLES
Vos photos gr?ce ? Sportograf446.6735VAN DEN BERGHE Jeremi31BEL1:33:594:28 13.47239SEH469ANTWERPEN
Vos photos gr?ce ? Sportograf447.3104VANDERPERREN Cédric45BEL1:34:004:28 13.4750M45470RHODE-SAINT-GENÈSE
Vos photos gr?ce ? Sportograf448.10661HOTTERBECK Gaëtan27BEL1:34:024:28 13.46240SEH471
Vos photos gr?ce ? Sportograf449.9348ALI Saidou39BEL1:34:024:28 13.4687M35472BRUXELLES
Vos photos gr?ce ? Sportograf450.9864VANDERPERREN Steve32BEL1:34:034:28 13.46241SEH473HERENT
Vos photos gr?ce ? Sportograf451.6941DE BRABANT Jean-Baptiste24BEL1:34:054:28 13.45242SEH474ROCHEFORT
Vos photos gr?ce ? Sportograf452.7751BODSON Guillaume24BEL1:34:084:28 13.45243SEH475MARCHIENNE AU PONT
Vos photos gr?ce ? Sportograf453.3314PEETERS Frédéric35BEL1:34:094:28 13.4588M35476CUESMES
Vos photos gr?ce ? Sportograf454.5369HELBER Bernd34DEU1:34:094:28 13.44244SEH477IXELLES
Vos photos gr?ce ? Sportograf455.8380PLICHON Antoine25BEL1:34:104:28 13.44245SEH478GERPINNES
Vos photos gr?ce ? Sportograf456.9654DIRICQ Jérôme25BEL1:34:124:28 13.44246SEH479QUAREGNON
Vos photos gr?ce ? Sportograf457.3055SARNA Pierantonio46ITA1:34:174:29 13.4351M45482EVERE
Vos photos gr?ce ? Sportograf458.3530LEMOINE Frédéric36FRA1:34:174:29 13.4389M35483MUTZIG
Vos photos gr?ce ? Sportograf459.9381HEUNINCK Alexandre27BEL1:34:184:29 13.42247SEH484BRUXELLES
Vos photos gr?ce ? Sportograf460.6438D'HOLLANDER Nelis29BEL1:34:204:29 13.42248SEH485MELSELE
Vos photos gr?ce ? Sportograf461.7922CASTELAIN Peter48BEL1:34:204:29 13.4252M45486KESSEL-LO
Vos photos gr?ce ? Sportograf462.7297KINANGA Dialungana31BEL1:34:204:29 13.42249SEH487BRUXELLES
Vos photos gr?ce ? Sportograf463.4254VAN BELLEGHEM Filip46BEL1:34:204:29 13.4253M45488BRUSSEL
Vos photos gr?ce ? Sportograf464.8234FORTON Benjamin33BEL1:34:224:29 13.41250SEH489SCHAERBEEK
Vos photos gr?ce ? Sportograf465.3492JESPERS Wim41BEL1:34:234:29 13.4148M40490BRUXELLES
Vos photos gr?ce ? Sportograf466.3198DELYS Laurent37BEL1:34:234:29 13.4190M35491JETTE
Vos photos gr?ce ? Sportograf467.5353HEYDEL Xavier25FRA1:34:254:29 13.41251SEH493WOLUWE SAINT-LAMBERT
Vos photos gr?ce ? Sportograf468.3170SMET Bart59BEL1:34:264:29 13.408M55494SCHMITTEN
Vos photos gr?ce ? Sportograf469.3264TALLIEU Gino46BEL1:34:274:29 13.4054M45496ROESELARE
Vos photos gr?ce ? Sportograf470.3837HASBANI Lahoucine17BEL1:34:284:29 13.40252SEH497CHIMAY
Vos photos gr?ce ? Sportograf471.3096SALAZAR Noel43BEL1:34:294:29 13.4049M40498BRUSSELS 8
Vos photos gr?ce ? Sportograf472.4459MAES Johan41BEL1:34:304:29 13.4050M40499DUISBURG
Vos photos gr?ce ? Sportograf473.5107PIRON Jonathan22BEL1:34:304:29 13.40253SEH500AUBEL
Vos photos gr?ce ? Sportograf474.5118REYNAUD Gilles49FRA1:34:304:29 13.3955M45501BAULERS
Vos photos gr?ce ? Sportograf475.3823METALLO Etienne29BEL1:34:314:29 13.39254SEH502BRUXELLES
Vos photos gr?ce ? Sportograf476.3047MARTIN Arnaud35BEL1:34:314:29 13.3991M35503OVERIJSE
Vos photos gr?ce ? Sportograf477.5421LLORET DE MULLER Alvaro24ESP1:34:314:29 13.39255SEH504BRUSSELS
Vos photos gr?ce ? Sportograf478.3046PICRIT Marc30BEL1:34:314:29 13.39256SEH505WOLUWÉ ST-PIERRE
Vos photos gr?ce ? Sportograf479.8441TIMMERS Raf29BEL1:34:314:29 13.39257SEH506HECHTEL
Vos photos gr?ce ? Sportograf480.3938DEKENS Romain68BEL1:34:324:29 13.391M65507GANSHOREN
Vos photos gr?ce ? Sportograf481.5069SCHNEIDER Geert40BEL1:34:334:29 13.3951M40508ETTERBEEK
Vos photos gr?ce ? Sportograf482.3074DEGUELDE Cedric36BEL1:34:344:29 13.3992M35509CÉROUX-MOUSTY
Vos photos gr?ce ? Sportograf483.8155TAVERNIER Ernie38BEL1:34:344:29 13.3993M35510MECHELEN
Vos photos gr?ce ? Sportograf484.10812VOORTMAN Guillaume33BEL1:34:364:30 13.38258SEH511
Vos photos gr?ce ? Sportograf485.3048DHONDT Gilles24BEL1:34:364:30 13.38259SEH512ANTWERPEN
Vos photos gr?ce ? Sportograf485.3278VERBRUGGE Stefan49BEL1:34:364:30 13.3856M45512ROESELARE
Vos photos gr?ce ? Sportograf487.8104MONFORT Germain35BEL1:34:374:30 13.3894M35514HUY
Vos photos gr?ce ? Sportograf488.4373DELAUNAY Alexandre24BEL1:34:374:30 13.38260SEH515UCCLE
Vos photos gr?ce ? Sportograf489.9853STASSIN Antoine23BEL1:34:384:30 13.38261SEH516ESTAIMBOURG
Vos photos gr?ce ? Sportograf490.4968SOARES ALMEIDA Yannick34BEL1:34:404:30 13.37262SEH517KESSEL-LO
Vos photos gr?ce ? Sportograf491.7923SMET David40BEL1:34:404:30 13.3752M40518VRASENE
Vos photos gr?ce ? Sportograf492.9920FREDERIC Olivier39BEL1:34:414:30 13.3795M35519ESNEUX
Vos photos gr?ce ? Sportograf493.10278GROENWEGHE Philippe57BEL1:34:434:30 13.369M55520KORTRIJK
Vos photos gr?ce ? Sportograf494.4344VASTMANS Johan44BEL1:34:434:30 13.3653M40521DIKKELVENNE
Vos photos gr?ce ? Sportograf495.4224LISEN Luc51BEL1:34:444:30 13.3617M50522OVERIJSE
Vos photos gr?ce ? Sportograf496.3053D'HONDT Dick40BEL1:34:444:30 13.3654M40523LISSEWEGE
Vos photos gr?ce ? Sportograf497.4598DE GROOTE Edouard29BEL1:34:464:30 13.36263SEH524LASNE
DNF: abandon; DSQ: disqualifié; Vitesse en km/h
Page: [1] 2 3 4 5 6 7 8 9 10